Time;durP1;ratioP1;P1;durP2;ratioP2;P2;SDS_P1;SDS_P2;PMS_P1;PMS_P2;Temp;Humidity;BMP_temperature;BMP_pressure;BME280_temperature;BME280_humidity;BME280_pressure;Samples;Min_cycle;Max_cycle;Signal;HPM_P1;HPM_P2
2021/10/28 00:13:51;;;;;;;19.27;13.68;;;;;;;15.10;66.53;102207.84;5024087;27;103812;-66
2021/10/28 00:16:25;;;;;;;20.00;14.82;;;;;;;15.09;66.69;102207.00;5022056;27;102168;-67
2021/10/28 00:19:11;;;;;;;18.30;13.60;;;;;;;15.09;66.63;102206.19;5029578;27;102502;-67
2021/10/28 00:21:39;;;;;;;19.75;13.88;;;;;;;15.10;66.49;102196.88;5034184;27;102871;-67
2021/10/28 00:24:09;;;;;;;20.65;14.23;;;;;;;15.10;66.81;102211.38;5025999;27;103928;-67
2021/10/28 00:26:38;;;;;;;18.75;13.50;;;;;;;15.09;66.49;102196.03;5020880;27;102875;-67
2021/10/28 00:29:07;;;;;;;18.13;13.77;;;;;;;15.10;66.66;102194.13;5034992;27;103584;-66
2021/10/28 00:31:38;;;;;;;19.27;14.02;;;;;;;15.10;66.79;102196.88;5032295;27;102153;-67
2021/10/28 00:34:07;;;;;;;18.75;13.85;;;;;;;15.09;66.37;102198.78;5019549;27;103917;-67
2021/10/28 00:36:34;;;;;;;17.33;13.75;;;;;;;15.09;66.73;102201.53;5028326;27;102120;-67
2021/10/28 00:39:04;;;;;;;19.60;14.27;;;;;;;15.09;66.70;102197.97;5034959;27;102608;-67
2021/10/28 00:41:31;;;;;;;17.05;13.40;;;;;;;15.10;66.95;102194.13;5035579;27;102260;-66
2021/10/28 00:44:00;;;;;;;18.05;13.45;;;;;;;15.08;66.51;102188.91;5031895;27;104045;-67
2021/10/28 00:46:28;;;;;;;18.00;13.43;;;;;;;15.09;66.82;102187.81;5020437;27;102062;-67
2021/10/28 00:48:55;;;;;;;17.02;12.98;;;;;;;15.09;66.55;102184.25;5029232;27;102366;-67
2021/10/28 00:51:24;;;;;;;15.93;13.35;;;;;;;15.09;66.65;102187.00;5035203;27;102227;-67
2021/10/28 00:53:52;;;;;;;16.75;13.00;;;;;;;15.09;66.50;102184.25;5031812;27;104154;-67
2021/10/28 00:56:22;;;;;;;17.30;13.48;;;;;;;15.09;66.49;102185.06;5031329;27;102552;-67
2021/10/28 00:58:48;;;;;;;15.48;12.82;;;;;;;15.09;66.63;102189.72;5029153;27;103443;-67
2021/10/28 01:01:15;;;;;;;17.45;12.90;;;;;;;15.09;67.09;102182.34;5026314;27;102227;-66
2021/10/28 01:03:42;;;;;;;19.85;14.07;;;;;;;15.08;66.43;102175.22;5029513;27;103769;-67
2021/10/28 01:06:10;;;;;;;18.15;13.43;;;;;;;15.09;66.61;102178.78;5032739;27;102374;-67
2021/10/28 01:08:38;;;;;;;16.52;12.20;;;;;;;15.08;66.78;102188.09;5018517;27;102404;-67
2021/10/28 01:11:06;;;;;;;15.10;12.27;;;;;;;15.07;66.91;102184.53;5022031;27;103243;-67
2021/10/28 01:13:34;;;;;;;17.90;12.60;;;;;;;15.08;66.77;102180.69;5029738;27;104012;-67
2021/10/28 01:16:02;;;;;;;14.45;12.25;;;;;;;15.08;66.88;102182.59;5032134;27;102253;-67
2021/10/28 01:18:30;;;;;;;15.07;12.45;;;;;;;15.08;66.79;102183.44;5025493;27;102332;-67
2021/10/28 01:20:58;;;;;;;18.63;13.02;;;;;;;15.08;66.55;102177.94;5033583;27;102381;-67
2021/10/28 01:23:26;;;;;;;18.00;12.93;;;;;;;15.07;66.54;102181.78;5028766;27;103881;-67
2021/10/28 01:25:53;;;;;;;19.77;13.20;;;;;;;15.08;66.40;102188.09;5033938;27;102243;-67
2021/10/28 01:28:22;;;;;;;17.52;12.73;;;;;;;15.08;66.47;102188.91;5026411;27;102070;-66
2021/10/28 01:30:49;;;;;;;16.17;12.60;;;;;;;15.07;66.59;102187.28;5031490;27;102614;-67
2021/10/28 01:33:16;;;;;;;16.67;12.23;;;;;;;15.08;66.94;102193.56;5033543;27;103685;-67
2021/10/28 01:35:43;;;;;;;15.18;12.00;;;;;;;15.09;66.75;102189.72;5023586;27;102195;-67
2021/10/28 01:38:12;;;;;;;15.73;12.02;;;;;;;15.07;66.60;102186.41;5025501;27;102001;-66
2021/10/28 01:40:38;;;;;;;;;;;;;;;15.07;66.68;102187.28;5032630;27;103001;-67
2021/10/28 01:43:05;;;;;;;15.35;12.13;;;;;;;15.07;66.61;102191.91;5034040;27;103893;-67
2021/10/28 01:45:33;;;;;;;18.13;12.77;;;;;;;15.07;66.68;102198.25;5026007;27;103074;-67
2021/10/28 01:48:00;;;;;;;15.82;11.55;;;;;;;15.06;66.60;102196.56;5029983;27;102324;-67
2021/10/28 01:50:30;;;;;;;17.25;12.48;;;;;;;15.07;66.42;102190.00;5030111;27;102421;-68
2021/10/28 01:52:57;;;;;;;13.55;11.23;;;;;;;15.06;66.80;102191.09;5031732;27;104031;-68
2021/10/28 01:55:25;;;;;;;16.88;11.98;;;;;;;15.07;66.67;102197.38;5024403;27;102155;-68
2021/10/28 01:57:52;;;;;;;16.42;12.63;;;;;;;15.07;66.59;102202.88;5029431;27;102896;-65
2021/10/28 02:00:22;;;;;;;17.35;12.20;;;;;;;15.06;66.66;102191.09;5042322;27;102168;-67
2021/10/28 02:02:49;;;;;;;15.20;12.13;;;;;;;15.06;66.80;102202.06;5047126;27;102963;-67
2021/10/28 02:05:17;;;;;;;15.25;11.98;;;;;;;15.06;66.39;102196.56;5049858;27;101982;-62
2021/10/28 02:07:44;;;;;;;14.63;11.75;;;;;;;15.07;66.55;102197.38;5041704;27;102182;-65
2021/10/28 02:10:12;;;;;;;16.13;11.70;;;;;;;15.07;66.29;102200.97;5020829;27;102066;-66
2021/10/28 02:12:41;;;;;;;15.20;11.15;;;;;;;15.05;66.74;102194.09;5031329;27;104124;-66
2021/10/28 02:15:10;;;;;;;15.93;11.75;;;;;;;15.07;66.48;102195.50;5027882;27;102213;-66
2021/10/28 02:17:37;;;;;;;15.02;11.45;;;;;;;15.05;66.75;102194.09;5031494;27;102513;-66
2021/10/28 02:20:07;;;;;;;15.07;11.88;;;;;;;15.06;66.83;102201.22;5037985;27;102179;-67
2021/10/28 02:22:34;;;;;;;13.98;11.32;;;;;;;15.05;66.79;102192.19;5034231;27;103859;-67
2021/10/28 02:25:01;;;;;;;15.13;11.90;;;;;;;15.04;66.63;102190.53;5031038;27;102271;-67
2021/10/28 02:27:27;;;;;;;15.45;11.43;;;;;;;15.04;66.79;102198.75;5028532;27;102182;-68
2021/10/28 02:29:56;;;;;;;15.35;11.65;;;;;;;15.06;66.97;102191.09;5034339;27;102691;-67
2021/10/28 02:32:22;;;;;;;15.48;11.68;;;;;;;15.04;66.76;102198.75;5019084;27;103944;-67
2021/10/28 02:34:49;;;;;;;15.57;11.32;;;;;;;15.06;66.73;102199.31;5035811;27;102136;-67
2021/10/28 02:37:17;;;;;;;17.80;12.10;;;;;;;15.06;66.48;102202.06;5025767;27;103926;-67
2021/10/28 02:39:44;;;;;;;13.07;11.38;;;;;;;15.06;66.65;102202.06;5031033;27;102235;-68
2021/10/28 02:42:11;;;;;;;15.45;11.25;;;;;;;15.06;66.35;102202.06;5031844;27;103992;-67
2021/10/28 02:44:38;;;;;;;14.25;10.70;;;;;;;15.04;66.47;102198.75;5033148;27;102092;-67
2021/10/28 02:47:06;;;;;;;14.95;11.75;;;;;;;15.04;66.51;102204.25;5027384;27;102555;-67
2021/10/28 02:49:32;;;;;;;13.07;10.50;;;;;;;15.04;66.76;102204.25;5026174;27;102706;-67
2021/10/28 02:51:59;;;;;;;16.13;11.02;;;;;;;15.04;66.52;102209.72;5032891;27;103955;-67
2021/10/28 02:54:25;;;;;;;15.68;11.65;;;;;;;15.04;66.67;102212.47;5032391;27;102727;-67
2021/10/28 02:56:53;;;;;;;14.80;10.25;;;;;;;15.04;66.52;102208.91;5031816;27;102364;-67
2021/10/28 02:59:19;;;;;;;14.80;11.85;;;;;;;15.05;66.84;102218.78;5033765;27;102310;-67
2021/10/28 03:01:47;;;;;;;13.57;10.50;;;;;;;15.04;66.86;102219.88;5033956;27;103930;-67
2021/10/28 03:04:17;;;;;;;9.75;8.05;;;;;;;15.03;66.71;102216.28;5026590;27;102127;-67
2021/10/28 03:06:43;;;;;;;;;;;;;;;15.04;66.73;102209.72;5030673;27;102527;-67
2021/10/28 03:09:14;;;;;;;14.98;10.77;;;;;;;15.03;66.65;102210.81;5025177;27;102268;-66
2021/10/28 03:11:42;;;;;;;13.77;10.77;;;;;;;15.02;66.27;102219.31;5032113;27;103879;-66
2021/10/28 03:14:11;;;;;;;12.80;10.30;;;;;;;15.03;66.65;102213.53;5023933;27;102860;-67
2021/10/28 03:17:03;;;;;;;13.05;10.40;;;;;;;15.03;66.77;102215.47;5028299;27;102334;-67
2021/10/28 03:19:43;;;;;;;15.52;10.82;;;;;;;15.02;66.66;102222.88;5026775;27;102160;-67
2021/10/28 03:27:41;;;;;;;13.77;10.98;;;;;;;15.02;66.72;102228.34;5028887;27;102330;-66
2021/10/28 03:30:09;;;;;;;13.05;10.73;;;;;;;15.03;66.64;102226.44;5029067;27;102808;-67
2021/10/28 03:32:36;;;;;;;14.40;10.90;;;;;;;15.02;66.51;102222.88;5027840;27;103957;-66
2021/10/28 03:35:07;;;;;;;13.00;10.23;;;;;;;15.02;66.79;102228.34;5034347;27;102179;-67
2021/10/28 03:43:07;;;;;;;13.13;10.18;;;;;;;15.01;66.44;102226.72;5031824;27;103911;-67
2021/10/28 04:31:07;;;;;;;13.43;10.30;;;;;;;15.00;66.44;102270.81;5028842;27;103873;-67
2021/10/28 04:33:33;;;;;;;12.98;9.85;;;;;;;14.99;66.81;102274.66;5026883;27;102128;-67
2021/10/28 04:36:00;;;;;;;12.07;10.27;;;;;;;15.00;66.50;102279.03;5020261;27;103844;-67
2021/10/28 04:38:28;;;;;;;12.15;9.88;;;;;;;14.98;66.42;102282.06;5033992;27;102290;-66
2021/10/28 04:40:55;;;;;;;13.48;10.75;;;;;;;14.99;66.48;102289.19;5026284;27;102460;-67
2021/10/28 04:43:21;;;;;;;13.90;10.02;;;;;;;14.99;66.75;102297.41;5031364;27;102528;-67
2021/10/28 04:45:48;;;;;;;14.18;10.68;;;;;;;14.99;66.58;102300.16;5027493;27;104006;-67
2021/10/28 04:48:15;;;;;;;13.63;10.48;;;;;;;14.99;66.50;102302.91;5030248;27;102504;-66
2021/10/28 04:50:42;;;;;;;14.98;11.00;;;;;;;14.99;66.73;102311.13;5029281;27;103464;-67
2021/10/28 04:53:09;;;;;;;12.35;10.35;;;;;;;14.99;66.59;102313.88;5028510;27;102463;-66
2021/10/28 04:55:37;;;;;;;15.85;10.70;;;;;;;14.99;66.62;102311.13;5027966;27;103757;-66
2021/10/28 04:58:04;;;;;;;12.68;10.30;;;;;;;14.99;66.49;102316.59;5023068;27;102397;-67
2021/10/28 05:00:31;;;;;;;13.88;10.43;;;;;;;14.99;66.59;102313.88;5026318;27;103840;-67
2021/10/28 05:02:57;;;;;;;14.20;10.07;;;;;;;14.99;66.67;102321.25;5025754;27;102240;-66
2021/10/28 05:05:24;;;;;;;15.50;11.45;;;;;;;14.99;66.49;102324.00;5022823;27;104014;-67
2021/10/28 05:07:50;;;;;;;13.20;10.60;;;;;;;14.98;66.80;102320.44;5025392;27;102240;-67
2021/10/28 05:10:17;;;;;;;14.18;10.70;;;;;;;15.00;66.48;102323.75;5020166;27;103541;-67
2021/10/28 05:12:45;;;;;;;14.32;11.00;;;;;;;15.00;66.69;102323.75;5030995;27;103137;-67
2021/10/28 05:15:12;;;;;;;12.70;10.47;;;;;;;15.00;66.74;102318.28;5034825;27;103874;-67
2021/10/28 05:17:39;;;;;;;14.82;11.35;;;;;;;15.00;66.67;102318.28;5032507;27;102354;-66
2021/10/28 05:20:06;;;;;;;13.57;10.32;;;;;;;15.01;66.71;102327.31;5033580;27;102126;-67
2021/10/28 05:22:33;;;;;;;14.35;10.73;;;;;;;15.01;66.73;102327.31;5023179;27;102152;-67
2021/10/28 05:24:59;;;;;;;14.35;10.82;;;;;;;15.02;66.69;102320.75;5027422;27;104018;-66
2021/10/28 05:27:27;;;;;;;14.77;11.10;;;;;;;15.01;66.93;102325.41;5030054;27;102451;-66
2021/10/28 05:29:54;;;;;;;14.85;11.18;;;;;;;15.01;66.77;102324.59;5032174;27;102428;-66
2021/10/28 05:32:21;;;;;;;12.82;10.30;;;;;;;15.01;67.09;102328.16;5024336;27;102337;-67
2021/10/28 05:34:49;;;;;;;13.30;10.93;;;;;;;15.02;66.74;102329.78;5031519;27;103947;-67
2021/10/28 05:37:16;;;;;;;13.23;11.60;;;;;;;15.03;66.75;102327.88;5023815;27;102023;-66
2021/10/28 05:39:42;;;;;;;14.48;11.13;;;;;;;15.04;66.93;102329.56;5020541;27;102103;-67
2021/10/28 05:42:09;;;;;;;16.23;10.73;;;;;;;15.04;66.58;102332.28;5032590;27;102148;-67
2021/10/28 05:44:35;;;;;;;14.25;10.82;;;;;;;15.03;66.99;102334.19;5028390;27;103617;-67
2021/10/28 05:47:04;;;;;;;16.13;11.70;;;;;;;15.05;66.71;102331.19;5028218;27;102143;-67
2021/10/28 05:49:32;;;;;;;14.60;11.30;;;;;;;15.05;66.68;102331.19;5032117;27;103812;-67
2021/10/28 05:51:58;;;;;;;15.20;10.75;;;;;;;15.04;66.82;102335.84;5034153;27;102259;-67
2021/10/28 05:54:25;;;;;;;13.77;10.60;;;;;;;15.05;67.04;102329.28;5023285;27;103891;-67
2021/10/28 05:56:51;;;;;;;14.40;10.65;;;;;;;15.05;66.60;102334.75;5015193;27;102920;-66
2021/10/28 05:59:18;;;;;;;13.70;11.60;;;;;;;15.05;67.04;102337.50;5029848;27;102566;-66
2021/10/28 06:01:44;;;;;;;13.95;11.45;;;;;;;15.06;66.73;102361.09;5031987;27;102141;-67
2021/10/28 06:04:12;;;;;;;15.77;11.82;;;;;;;15.07;67.04;102367.38;5021024;27;103992;-67
2021/10/28 06:06:38;;;;;;;14.80;11.32;;;;;;;15.07;66.83;102368.25;5025264;27;104075;-67
2021/10/28 06:09:05;;;;;;;12.70;10.93;;;;;;;15.08;67.00;102363.56;5028418;27;102289;-67
2021/10/28 06:11:31;;;;;;;17.50;12.48;;;;;;;15.08;66.79;102364.41;5032480;27;102305;-67
2021/10/28 06:13:58;;;;;;;13.00;11.07;;;;;;;15.07;66.86;102357.28;5030692;27;104064;-67
2021/10/28 06:16:26;;;;;;;14.10;10.98;;;;;;;15.08;66.78;102358.91;5027995;27;102693;-67
2021/10/28 06:18:53;;;;;;;15.93;12.00;;;;;;;15.07;66.79;102356.41;5023977;27;102196;-67
2021/10/28 06:21:25;;;;;;;15.30;11.07;;;;;;;15.08;66.99;102358.91;5030487;27;102258;-67
2021/10/28 06:23:51;;;;;;;15.45;11.35;;;;;;;15.09;66.69;102352.34;5025792;27;108169;-65
2021/10/28 06:26:18;;;;;;;16.48;11.60;;;;;;;15.09;66.95;102357.81;5032025;27;102462;-65
2021/10/28 06:28:45;;;;;;;15.52;11.98;;;;;;;15.08;66.77;102358.91;5026126;27;102402;-66
2021/10/28 06:31:14;;;;;;;13.68;11.82;;;;;;;15.09;67.03;102359.75;5032946;27;102624;-66
2021/10/28 06:33:47;;;;;;;13.80;10.75;;;;;;;15.08;66.98;102353.44;5031716;27;104079;-66
2021/10/28 06:36:15;;;;;;;15.23;11.48;;;;;;;15.08;66.46;102353.44;5027941;27;103017;-67
2021/10/28 06:38:43;;;;;;;15.95;11.73;;;;;;;15.09;66.87;102355.06;5034827;27;102477;-66
2021/10/28 06:41:10;;;;;;;14.70;12.05;;;;;;;15.08;66.97;102353.44;5034042;27;102216;-67
2021/10/28 06:43:37;;;;;;;15.15;12.13;;;;;;;15.09;66.90;102355.06;5034108;27;103749;-68
2021/10/28 06:46:05;;;;;;;13.73;12.03;;;;;;;15.08;66.99;102353.44;5027815;27;103947;-67
2021/10/28 06:48:31;;;;;;;14.80;11.95;;;;;;;15.08;66.82;102336.97;5034231;27;102089;-67
2021/10/28 06:50:59;;;;;;;15.32;12.38;;;;;;;15.09;66.72;102335.88;5041316;27;102296;-66
2021/10/28 06:53:29;;;;;;;16.27;12.35;;;;;;;15.09;66.97;102333.13;5042618;27;103951;-66
2021/10/28 06:56:37;;;;;;;16.63;11.82;;;;;;;15.09;67.06;102338.63;5046173;27;101940;-66
2021/10/28 07:04:29;;;;;;;16.23;12.90;;;;;;;15.08;67.04;102356.19;5034025;27;103878;-67
2021/10/28 07:06:56;;;;;;;16.58;12.18;;;;;;;15.09;66.85;102352.34;5032176;27;103093;-67
2021/10/28 07:09:42;;;;;;;15.23;12.05;;;;;;;15.09;66.97;102343.28;5035107;27;103045;-67
2021/10/28 07:12:25;;;;;;;16.00;12.80;;;;;;;15.08;67.01;102347.94;5027255;27;102246;-67
2021/10/28 07:14:57;;;;;;;16.60;13.00;;;;;;;15.10;66.94;102339.44;5033705;27;108835;-67
2021/10/28 07:27:53;;;;;;;15.73;13.10;;;;;;;15.11;66.86;102341.94;5027575;27;102422;-66
2021/10/28 08:00:06;;;;;;;20.05;14.18;;;;;;;15.12;66.75;102313.44;5035895;27;104124;-66
2021/10/28 08:05:43;;;;;;;15.45;13.07;;;;;;;15.14;66.55;102318.63;5030577;27;102235;-65
2021/10/28 08:21:36;;;;;;;;;;;;;;;15.18;67.10;102324.41;5035728;27;102205;-67
2021/10/28 08:29:23;;;;;;;16.25;13.32;;;;;;;15.18;67.15;102318.94;5034009;27;103889;-67
2021/10/28 08:31:52;;;;;;;18.60;12.95;;;;;;;15.20;66.90;102322.25;5032129;27;102050;-66
2021/10/28 08:34:25;;;;;;;15.63;12.80;;;;;;;15.19;67.19;102317.88;5034156;27;102095;-67
2021/10/28 08:36:53;;;;;;;16.88;13.07;;;;;;;15.19;67.21;102315.94;5034984;27;105236;-66
2021/10/28 08:39:22;;;;;;;16.13;13.80;;;;;;;15.20;67.08;102319.50;5022287;27;103934;-66
2021/10/28 08:41:49;;;;;;;16.77;13.48;;;;;;;15.20;67.15;102312.09;5028705;27;102241;-67
2021/10/28 08:44:20;;;;;;;18.52;13.55;;;;;;;15.20;66.81;102312.09;5028478;27;102370;-67
2021/10/28 08:46:47;;;;;;;16.50;13.68;;;;;;;15.21;66.79;102312.94;5036855;27;102732;-67
2021/10/28 08:49:23;;;;;;;17.20;13.48;;;;;;;15.22;66.96;102314.56;5033148;27;104044;-66
2021/10/28 08:55:08;;;;;;;15.95;13.45;;;;;;;15.23;67.00;102308.03;5026264;27;102627;-67
2021/10/28 09:26:22;;;;;;;16.27;13.85;;;;;;;15.27;67.04;102295.44;5027188;27;102439;-67
2021/10/28 09:29:09;;;;;;;15.32;13.40;;;;;;;15.28;67.20;102294.31;5021886;27;102169;-67
2021/10/28 09:31:48;;;;;;;18.25;13.85;;;;;;;15.28;67.12;102302.56;5031291;27;102510;-67
2021/10/28 09:34:28;;;;;;;14.50;12.73;;;;;;;15.28;67.10;102291.59;5023171;27;103901;-67
2021/10/28 09:45:51;;;;;;;18.73;14.57;;;;;;;15.29;66.69;102282.25;5024509;27;103826;-67
2021/10/28 09:49:47;;;;;;;18.00;14.18;;;;;;;15.29;67.18;102276.78;5022838;27;102531;-67
2021/10/28 09:51:19;;;;;;;16.45;13.07;;;;;;;15.31;67.00;102280.09;5030743;27;102409;-67
2021/10/28 09:59:25;;;;;;;16.83;13.10;;;;;;;15.30;67.00;102273.78;5030116;27;102230;-67
2021/10/28 10:01:59;;;;;;;17.00;13.73;;;;;;;15.30;67.10;102267.47;5020043;27;102167;-67
2021/10/28 10:04:29;;;;;;;17.27;13.70;;;;;;;15.30;67.03;102267.47;5027852;27;102287;-67
2021/10/28 10:06:55;;;;;;;16.70;12.85;;;;;;;15.31;66.78;102269.13;5021483;27;103683;-67
2021/10/28 10:09:23;;;;;;;16.67;13.90;;;;;;;15.30;66.83;102267.47;5028320;27;103416;-67
2021/10/28 10:11:51;;;;;;;16.08;13.00;;;;;;;15.30;66.73;102265.56;5017927;27;102404;-67
2021/10/28 10:14:20;;;;;;;16.30;13.73;;;;;;;15.30;66.78;102256.50;5032976;27;102648;-67
2021/10/28 10:16:48;;;;;;;16.42;13.52;;;;;;;15.31;66.87;102258.16;5019793;27;104555;-67
2021/10/28 10:19:16;;;;;;;16.98;13.95;;;;;;;15.30;66.70;102251.84;5020820;27;104164;-67
2021/10/28 10:21:46;;;;;;;15.57;13.50;;;;;;;15.30;66.69;102242.78;5024500;27;102607;-67
2021/10/28 10:24:44;;;;;;;18.17;13.80;;;;;;;15.30;66.99;102240.03;5028764;27;102181;-67
2021/10/28 11:25:39;;;;;;;16.77;12.32;;;;;;;15.25;66.27;102187.88;5032876;27;103896;-68
2021/10/28 12:20:11;;;;;;;14.13;11.93;;;;;;;15.24;66.63;102142.38;5022574;27;103722;-67
2021/10/28 12:28:09;;;;;;;13.15;11.75;;;;;;;15.24;66.71;102142.38;5026507;27;102871;-67
2021/10/28 12:44:44;;;;;;;16.02;11.60;;;;;;;15.24;66.65;102128.66;5023660;27;103141;-68
2021/10/28 12:52:51;;;;;;;13.15;10.30;;;;;;;15.24;66.51;102120.44;5028489;27;102850;-67
2021/10/28 13:58:23;;;;;;;15.88;12.63;;;;;;;15.26;66.73;102104.53;5004828;28;104352;-68
2021/10/28 14:29:41;;;;;;;15.55;11.63;;;;;;;15.25;67.31;102119.31;5027159;27;102380;-68
2021/10/28 15:28:52;;;;;;;17.55;13.00;;;;;;;15.25;67.08;102111.09;5035377;27;103070;-68
2021/10/28 16:21:57;;;;;;;22.25;17.45;;;;;;;15.27;67.21;102134.44;5027879;27;102583;-68
2021/10/28 16:24:26;;;;;;;23.27;16.27;;;;;;;15.27;67.40;102139.91;5036740;27;102432;-67
2021/10/28 16:26:53;;;;;;;;;;;;;;;15.29;67.44;102145.13;5034603;27;102181;-68
2021/10/28 16:29:22;;;;;;;24.92;17.58;;;;;;;15.28;67.13;102146.22;5019508;27;103975;-68
2021/10/28 16:31:49;;;;;;;28.33;18.08;;;;;;;15.27;67.33;102136.34;5039271;27;102372;-68
2021/10/28 16:34:16;;;;;;;28.17;19.45;;;;;;;15.28;67.47;102138.00;5037128;27;102167;-68
2021/10/28 16:36:43;;;;;;;25.92;19.85;;;;;;;15.28;67.55;102138.00;5028439;27;102324;-68
2021/10/28 16:39:12;;;;;;;27.70;20.15;;;;;;;15.27;67.54;102136.34;5026253;27;104123;-68
2021/10/28 16:41:39;;;;;;;;;;;;;;;15.27;67.40;102141.84;5034295;27;102232;-68
2021/10/28 16:44:06;;;;;;;29.80;20.70;;;;;;;15.27;67.78;102128.94;5030677;27;102259;-68
2021/10/28 16:46:35;;;;;;;34.70;21.85;;;;;;;15.28;67.34;102147.03;5029249;27;103112;-69
2021/10/28 16:49:02;;;;;;;35.15;22.23;;;;;;;15.28;67.17;102146.22;5036213;27;102984;-68
2021/10/28 16:51:28;;;;;;;34.65;22.48;;;;;;;15.28;67.58;102143.47;5036171;27;102711;-68
2021/10/28 16:53:55;;;;;;;31.02;22.60;;;;;;;15.28;67.66;102148.97;5031203;27;102077;-69
2021/10/28 16:56:22;;;;;;;32.35;23.02;;;;;;;15.28;67.32;102148.97;5030706;27;102578;-68
2021/10/28 16:58:49;;;;;;;36.92;24.15;;;;;;;15.28;67.42;102148.97;5027356;27;103971;-68
2021/10/28 17:01:15;;;;;;;34.83;22.67;;;;;;;15.28;67.43;102148.97;5031016;27;102226;-68
2021/10/28 17:03:43;;;;;;;33.45;23.02;;;;;;;15.28;67.40;102157.19;5022375;27;103241;-68
2021/10/28 17:06:13;;;;;;;32.67;23.30;;;;;;;15.27;67.40;102161.03;5029751;27;102167;-68
2021/10/28 17:08:40;;;;;;;31.42;23.15;;;;;;;15.27;67.30;102166.50;5026325;27;103911;-68
2021/10/28 17:11:07;;;;;;;34.30;22.85;;;;;;;15.27;67.32;102163.78;5025187;27;103170;-68
2021/10/28 17:13:34;;;;;;;33.70;22.90;;;;;;;15.27;67.36;102163.78;5025511;27;102488;-68
2021/10/28 17:16:01;;;;;;;32.80;23.85;;;;;;;15.26;67.44;102165.69;5037242;27;103134;-68
2021/10/28 17:18:28;;;;;;;33.20;23.67;;;;;;;15.26;67.28;102167.63;5022969;27;104103;-68
2021/10/28 17:20:58;;;;;;;32.97;23.33;;;;;;;15.27;67.55;102158.28;5025980;27;102462;-68
2021/10/28 17:23:33;;;;;;;34.30;24.25;;;;;;;15.26;67.63;102162.94;5018308;27;102039;-68
2021/10/28 17:26:03;;;;;;;34.97;23.70;;;;;;;15.26;67.32;102162.13;5033659;27;102305;-68
2021/10/28 17:28:29;;;;;;;32.45;23.27;;;;;;;15.27;67.23;102166.50;5022913;27;107931;-67
2021/10/28 17:30:56;;;;;;;36.17;24.63;;;;;;;15.26;67.27;102167.63;5030479;27;102396;-67
2021/10/28 17:33:24;;;;;;;34.30;24.25;;;;;;;15.28;67.60;102170.91;5027406;27;102338;-68
2021/10/28 17:35:51;;;;;;;38.22;25.02;;;;;;;15.27;67.47;102158.28;5031642;27;102934;-68
2021/10/28 17:38:19;;;;;;;34.65;24.05;;;;;;;15.26;67.36;102154.72;5021386;27;104081;-68
2021/10/28 17:40:47;;;;;;;35.58;24.33;;;;;;;15.26;67.69;102159.38;5024418;27;102341;-68
2021/10/28 17:43:14;;;;;;;36.10;25.45;;;;;;;15.26;67.33;102162.13;5025021;27;102164;-68
2021/10/28 17:45:41;;;;;;;38.13;26.27;;;;;;;15.26;67.36;102157.47;5029533;27;102520;-68
2021/10/28 17:48:08;;;;;;;38.15;25.38;;;;;;;15.27;67.29;102161.03;5024404;27;106537;-68
2021/10/28 17:50:35;;;;;;;37.10;26.27;;;;;;;15.26;67.72;102156.66;5030712;27;102637;-68
2021/10/28 17:53:01;;;;;;;37.17;26.45;;;;;;;15.25;67.38;102165.94;5030843;27;102519;-69
2021/10/28 17:55:29;;;;;;;37.65;26.88;;;;;;;15.26;67.29;102168.44;5032165;27;102391;-69
2021/10/28 17:57:56;;;;;;;36.43;25.80;;;;;;;15.25;67.54;102158.53;5014525;27;104094;-68
2021/10/28 18:00:23;;;;;;;37.33;27.02;;;;;;;15.26;67.53;102164.88;5027888;27;102538;-69
2021/10/28 18:02:52;;;;;;;39.63;26.83;;;;;;;15.26;67.44;102167.63;5029489;27;104225;-68
2021/10/28 18:05:19;;;;;;;36.22;27.27;;;;;;;15.26;67.26;102167.63;5032157;27;102229;-68
2021/10/28 18:07:47;;;;;;;40.53;28.17;;;;;;;15.25;67.26;102163.19;5031600;27;104512;-68
2021/10/28 18:10:15;;;;;;;36.33;27.38;;;;;;;15.25;67.77;102166.75;5028400;27;102247;-66
2021/10/28 18:12:43;;;;;;;37.38;27.35;;;;;;;15.25;67.43;102174.16;5027153;27;103638;-66
2021/10/28 18:15:10;;;;;;;37.08;27.38;;;;;;;15.26;67.84;102175.84;5029705;27;102157;-66
2021/10/28 18:17:36;;;;;;;38.47;27.27;;;;;;;15.25;67.69;102174.16;5031876;27;103982;-66
2021/10/28 18:20:05;;;;;;;39.63;27.80;;;;;;;15.25;67.51;102179.66;5026215;27;105206;-66
2021/10/28 18:22:37;;;;;;;38.75;26.80;;;;;;;15.25;67.48;102177.75;5026702;27;102263;-66
2021/10/28 18:25:04;;;;;;;37.03;26.95;;;;;;;15.25;67.44;102176.91;5024245;27;102809;-66
2021/10/28 18:27:32;;;;;;;39.70;26.95;;;;;;;15.24;67.36;102183.50;5032532;27;103830;-66
2021/10/28 18:30:01;;;;;;;37.92;27.10;;;;;;;15.24;67.43;102175.28;5029266;27;102169;-66
2021/10/28 18:32:28;;;;;;;38.90;28.08;;;;;;;15.25;67.67;102185.16;5026138;27;102137;-66
2021/10/28 18:34:54;;;;;;;39.17;27.60;;;;;;;15.24;67.73;102180.75;5033494;27;102121;-66
2021/10/28 18:37:21;;;;;;;36.97;27.10;;;;;;;15.25;67.31;102190.63;5020526;27;103887;-66
2021/10/28 18:39:50;;;;;;;38.53;26.48;;;;;;;15.24;67.70;102189.00;5026674;27;103738;-66
2021/10/28 18:42:16;;;;;;;;;;;;;;;15.23;67.50;102179.94;5021703;27;102023;-66
2021/10/28 18:44:43;;;;;;;37.30;27.63;;;;;;;15.24;67.87;102180.75;5030521;27;102229;-66
2021/10/28 18:47:11;;;;;;;38.58;27.08;;;;;;;15.23;67.35;102176.38;5024111;27;103758;-66
2021/10/28 18:49:37;;;;;;;39.58;27.65;;;;;;;15.25;67.26;102182.41;5033742;27;102200;-66
2021/10/28 18:52:04;;;;;;;37.67;27.17;;;;;;;15.23;67.66;102170.88;5031626;27;102573;-66
2021/10/28 18:54:30;;;;;;;34.33;25.33;;;;;;;15.24;67.41;102176.09;5027596;27;102192;-66
2021/10/28 18:56:56;;;;;;;33.65;26.98;;;;;;;15.24;67.52;102175.28;5020237;27;103887;-67
2021/10/28 18:59:23;;;;;;;34.97;26.17;;;;;;;15.24;67.46;102172.53;5022789;27;102188;-66
2021/10/28 19:01:51;;;;;;;36.42;25.55;;;;;;;15.23;67.65;102176.38;5026419;27;102697;-66
2021/10/28 19:04:18;;;;;;;37.70;26.83;;;;;;;15.24;67.87;102175.28;5033156;27;103334;-66
2021/10/28 19:06:46;;;;;;;36.58;26.23;;;;;;;15.23;67.67;102179.94;5033414;27;103706;-66
2021/10/28 19:09:13;;;;;;;37.03;26.95;;;;;;;15.23;67.67;102179.13;5034475;27;102020;-66
2021/10/28 19:11:47;;;;;;;37.17;26.48;;;;;;;15.22;67.81;102178.28;5031513;27;103939;-66
2021/10/28 19:14:14;;;;;;;36.08;26.15;;;;;;;15.24;67.76;102186.25;5026385;27;102209;-66
2021/10/28 19:16:40;;;;;;;34.65;25.17;;;;;;;15.23;67.38;102174.47;5029244;27;103977;-66
2021/10/28 19:19:07;;;;;;;37.83;26.83;;;;;;;15.23;67.72;102179.13;5028237;27;102248;-66
2021/10/28 19:21:35;;;;;;;36.30;25.60;;;;;;;15.23;67.83;102179.13;5038660;27;102200;-66
2021/10/28 19:24:01;;;;;;;37.45;26.30;;;;;;;15.22;67.47;102178.28;5038070;27;102382;-66
2021/10/28 19:26:28;;;;;;;34.88;25.08;;;;;;;15.24;67.58;102175.28;5027944;27;104013;-66
2021/10/28 19:28:54;;;;;;;32.13;24.63;;;;;;;15.21;67.53;102170.31;5032879;27;102509;-66
2021/10/28 19:31:24;;;;;;;32.88;24.50;;;;;;;15.23;67.79;102179.94;5037853;27;102405;-65
2021/10/28 19:33:53;;;;;;;32.85;25.52;;;;;;;15.22;67.75;102171.97;5033066;27;102298;-66
2021/10/28 19:47:06;;;;;;;31.10;24.15;;;;;;;15.23;67.91;102181.84;5027465;27;104041;-65
2021/10/28 19:49:33;;;;;;;32.25;25.13;;;;;;;15.22;67.46;102186.53;5021769;27;102054;-66
2021/10/28 19:52:02;;;;;;;29.75;24.33;;;;;;;15.21;67.69;102182.09;5031399;27;102182;-66
2021/10/28 19:54:30;;;;;;;30.42;23.25;;;;;;;15.21;67.79;102181.28;5036356;27;102844;-66
2021/10/28 19:56:56;;;;;;;30.10;22.77;;;;;;;15.22;67.60;102188.41;5028991;27;103808;-66
2021/10/28 19:59:25;;;;;;;31.70;22.35;;;;;;;15.20;67.52;102180.47;5026088;27;102373;-67